Latest Weather Observations for Sydney - Observatory Hill

IDN60901

Issued at 7:25 pm EST Saturday 23 August 2014 (issued every 10 minutes, with the page automatically refreshed every 10 minutes)

About weather observations | Map of Sydney area stations | Latest observations for Sydney area | Other Formats
Station Details ID: 066062 Name: SYDNEY (OBSERVATORY HILL) Lat: -33.86 Lon: 151.21 Height: 39.0 m
Data from the previous 72 hours. | See also: Recent months at Sydney - Observatory Hill

* Apparent temperature (App Temp) for Sydney - Observatory Hill is calculated using temperature observations collected at Sydney - Observatory Hill and wind observations collected at Fort Denison, as wind observations are not currently provided for Sydney - Observatory Hill.

Date/Time
EST
Tmp

°C
App
Tmp
°C
Dew
Point
°C
Rel
Hum
%
Delta-T

°C
Wind Press
QNH
hPa
Press
MSL
hPa
Rain
since
9 am
mm
Dir
 
Spd
km/h
Gust
km/h
Spd
kts
Gust
kts
23/07:00pm 15.2 14.1 12.0 81 1.7 - 9 - 5 - 1030.4 1030.4 3.4
23/06:30pm 15.2 13.0 12.0 81 1.7 - 15 - 8 - 1030.2 - 3.4
23/06:00pm 15.1 13.6 11.9 81 1.7 - 11 - 6 - 1030.0 1030.0 3.4
23/05:30pm 14.9 13.0 11.9 82 1.6 - 13 - 7 - 1030.0 - 3.4
23/05:00pm 14.9 14.4 12.0 83 1.6 - 6 - 3 - 1029.6 1029.6 3.4
23/04:30pm 15.0 13.8 12.7 86 1.3 - 11 - 6 - 1029.2 - 3.4
23/04:00pm 14.6 13.6 12.3 86 1.2 - 9 - 5 - 1029.2 1029.2 3.4
23/03:30pm 14.8 14.0 13.0 89 1.0 - 9 - 5 - 1029.1 - 3.4
23/03:00pm 14.8 11.7 12.3 85 1.4 - 20 - 11 - 1029.3 1029.3 2.6
23/02:30pm 16.8 13.6 11.9 73 2.7 - 20 - 11 - 1029.1 - 1.4
23/02:00pm 17.6 14.8 11.2 66 3.4 - 17 - 9 - 1029.1 1029.1 1.4
23/01:30pm 18.4 16.5 11.7 65 3.7 - 13 - 7 - 1029.2 - 1.4
23/01:00pm 19.2 17.8 13.4 69 3.3 - 13 - 7 - 1029.2 1029.2 1.4
23/12:30pm 16.5 14.0 12.3 76 2.3 - 17 - 9 - 1029.6 - 1.4
23/12:00pm 16.8 15.9 12.5 76 2.4 - 9 - 5 - 1030.0 1030.0 1.4
23/11:30am 16.8 15.8 13.5 81 1.9 - 11 - 6 - 1030.3 - 1.4
23/11:00am 15.7 14.3 13.5 87 1.2 - 13 - 7 - 1030.9 1030.9 1.4
23/10:30am 14.9 14.2 13.1 89 1.0 - 9 - 5 - 1031.2 - 1.4
23/10:00am 14.4 12.9 13.1 92 0.7 - 13 - 7 - 1031.2 1031.2 1.4
23/09:30am 13.7 12.9 12.8 94 0.5 - 9 - 5 - 1031.4 - 1.4
23/09:00am 11.8 11.2 10.5 92 0.7 - 4 - 2 - 1031.6 1031.6 3.2
23/08:30am 11.7 9.1 10.6 93 0.6 - 15 - 8 - 1031.3 - 2.6
23/08:00am 10.7 7.8 9.6 93 0.5 - 15 - 8 - 1031.2 1031.2 2.6
23/07:30am 10.5 6.8 9.4 93 0.6 - 19 - 10 - 1030.9 - 2.0
23/07:00am 10.3 6.9 9.2 93 0.5 - 17 - 9 - 1030.8 1030.8 2.0
23/06:30am 10.0 6.5 8.8 92 0.6 - 17 - 9 - 1030.3 - 2.0
23/06:00am 10.1 6.6 8.9 92 0.6 - 17 - 9 - 1029.8 1029.8 2.0
23/05:30am 10.2 6.8 9.0 92 0.6 - 17 - 9 - 1029.7 - 2.0
23/05:00am 10.4 7.8 9.2 92 0.6 - 13 - 7 - 1029.5 1029.5 1.8
23/04:30am 10.6 8.0 9.4 92 0.6 - 13 - 7 - 1029.4 - 1.8
23/04:00am 10.7 8.5 9.3 91 0.7 - 11 - 6 - 1029.3 1029.3 1.8
23/03:30am 11.0 8.5 9.6 91 0.7 - 13 - 7 - 1029.3 - 1.8
23/03:00am 11.2 8.7 9.8 91 0.7 - 13 - 7 - 1029.5 1029.5 1.8
23/02:30am 11.4 9.0 10.0 91 0.7 - 13 - 7 - 1029.6 - 1.8
23/02:00am 11.7 9.7 10.3 91 0.7 - 11 - 6 - 1029.7 1029.7 1.8
23/01:30am 11.7 10.7 10.3 91 0.7 - 6 - 3 - 1030.3 - 1.4
23/01:00am 11.7 10.1 10.1 90 0.8 - 9 - 5 - 1030.4 1030.4 1.4
23/12:30am 11.7 9.3 10.1 90 0.8 - 13 - 7 - 1030.5 - 1.4
23/12:00am 12.0 10.1 10.4 90 0.8 - 11 - 6 - 1030.6 1030.6 1.4
 
Date/Time
EST
Tmp

°C
App
Tmp
°C
Dew
Point
°C
Rel
Hum
%
Delta-T

°C
Wind Press
QNH
hPa
Press
MSL
hPa
Rain
since
9 am
mm
Dir
 
Spd
km/h
Gust
km/h
Spd
kts
Gust
kts
22/11:30pm 12.2 9.1 10.4 89 0.9 - 17 - 9 - 1030.5 - 1.4
22/11:00pm 12.7 9.8 10.9 89 0.9 - 17 - 9 - 1030.5 1030.5 1.4
22/10:30pm 12.9 10.4 11.0 88 1.0 - 15 - 8 - 1030.7 - 0.0
22/10:00pm 13.3 11.6 11.2 87 1.1 - 11 - 6 - 1030.7 1030.7 0.0
22/09:30pm 13.8 13.0 11.7 87 1.1 - 7 - 4 - 1030.6 - 0.0
22/09:00pm 13.8 13.1 11.5 86 1.2 - 6 - 3 - 1030.7 1030.7 0.0
22/08:30pm 13.8 13.4 11.0 83 1.5 - 4 - 2 - 1030.5 - 0.0
22/08:00pm 14.4 14.4 11.0 80 1.8 - 2 - 1 - 1030.4 1030.4 0.0
22/07:30pm 14.6 14.9 10.8 78 2.0 CALM 0 - 0 - 1030.3 - 0.0
22/07:00pm 14.6 14.5 10.8 78 2.0 - 2 - 1 - 1030.1 1030.1 0.0
22/06:30pm 14.7 13.8 10.7 77 2.1 - 6 - 3 - 1029.7 - 0.0
22/06:00pm 15.0 13.7 11.2 78 2.0 - 9 - 5 - 1029.6 1029.6 0.0
22/05:30pm 15.4 13.3 11.0 75 2.3 - 13 - 7 - 1029.4 - 0.0
22/05:00pm 15.9 13.0 10.9 72 2.7 - 17 - 9 - 1029.2 1029.2 0.0
22/04:30pm 16.2 13.2 10.5 69 3.0 - 17 - 9 - 1029.0 - 0.0
22/04:00pm 16.7 14.0 10.5 67 3.3 - 15 - 8 - 1028.9 1028.9 0.0
22/03:30pm 17.5 14.0 10.1 62 3.9 - 19 - 10 - 1028.9 - 0.0
22/03:00pm 18.5 15.5 10.8 61 4.1 - 17 - 9 - 1029.0 1029.0 0.0
22/02:30pm 19.3 16.0 11.6 61 4.2 - 20 - 11 - 1029.0 - 0.0
22/02:00pm 18.7 15.2 11.0 61 4.2 - 20 - 11 - 1029.1 1029.1 0.0
22/01:30pm 17.8 14.9 10.9 64 3.7 - 17 - 9 - 1029.4 - 0.0
22/01:00pm 17.7 14.5 10.1 61 4.0 - 17 - 9 - 1029.6 1029.6 0.0
22/12:30pm 16.8 14.1 10.4 66 3.4 - 15 - 8 - 1030.1 - 0.0
22/12:00pm 16.6 14.1 11.1 70 2.9 - 15 - 8 - 1030.5 1030.5 0.0
22/11:30am 16.1 14.2 10.6 70 2.9 - 11 - 6 - 1031.0 - 0.0
22/11:00am 16.3 15.5 11.2 72 2.7 - 6 - 3 - 1031.4 1031.4 0.0
22/10:30am 15.5 14.0 11.9 79 2.0 - 11 - 6 - 1031.6 - 0.0
22/10:00am 14.8 12.5 11.9 83 1.6 - 15 - 8 - 1032.0 1032.0 0.0
22/09:30am 13.9 11.9 11.6 86 1.2 - 13 - 7 - 1032.0 - 0.0
22/09:00am 13.2 10.4 11.3 88 1.0 - 17 - 9 - 1031.8 1031.8 10.2
22/08:30am 12.5 9.6 11.1 91 0.7 - 17 - 9 - 1031.7 - 10.2
22/08:00am 12.0 10.2 10.7 92 0.7 - 11 - 6 - 1031.5 1031.5 10.2
22/07:30am 11.6 9.6 10.3 92 0.7 - 11 - 6 - 1031.0 - 10.2
22/07:00am 11.2 9.1 9.8 91 0.7 - 11 - 6 - 1030.7 1030.7 10.2
22/06:30am 11.2 8.4 9.9 92 0.7 - 15 - 8 - 1030.4 - 10.2
22/06:00am 11.3 8.9 10.0 92 0.7 - 13 - 7 - 1030.1 1030.1 10.2
22/05:30am 11.4 8.6 10.1 92 0.7 - 15 - 8 - 1029.8 - 10.2
22/05:00am 11.3 8.9 9.9 91 0.7 - 13 - 7 - 1029.7 1029.7 10.2
22/04:30am 11.6 9.2 10.2 91 0.7 - 13 - 7 - 1029.6 - 10.0
22/04:00am 11.9 9.2 10.5 91 0.7 - 15 - 8 - 1029.4 1029.4 10.0
22/03:30am 12.0 9.4 10.6 91 0.7 - 15 - 8 - 1029.3 - 10.0
22/03:00am 12.1 11.0 10.7 91 0.7 - 7 - 4 - 1029.6 1029.6 9.8
22/02:30am 12.2 10.7 10.6 90 0.8 - 9 - 5 - 1029.7 - 8.0
22/02:00am 12.3 10.1 10.7 90 0.8 - 13 - 7 - 1029.8 1029.8 5.0
22/01:30am 12.5 9.9 10.7 89 0.9 - 15 - 8 - 1029.9 - 4.4
22/01:00am 12.6 9.3 10.8 89 0.9 - 19 - 10 - 1030.1 1030.1 4.4
22/12:30am 12.9 12.1 11.0 88 1.0 - 6 - 3 - 1030.1 - 4.0
22/12:00am 13.0 10.5 10.9 87 1.1 - 15 - 8 - 1030.2 1030.2 4.0
 
Date/Time
EST
Tmp

°C
App
Tmp
°C
Dew
Point
°C
Rel
Hum
%
Delta-T

°C
Wind Press
QNH
hPa
Press
MSL
hPa
Rain
since
9 am
mm
Dir
 
Spd
km/h
Gust
km/h
Spd
kts
Gust
kts
21/11:30pm 13.2 9.7 10.9 86 1.2 - 20 - 11 - 1030.5 - 3.0
21/11:00pm 13.6 13.1 10.8 83 1.5 - 4 - 2 - 1030.2 1030.2 1.4
21/10:30pm 13.8 11.6 10.8 82 1.6 - 13 - 7 - 1030.1 - 1.4
21/10:00pm 14.2 10.6 10.4 78 2.0 - 20 - 11 - 1030.0 1030.0 1.2
21/09:30pm 14.2 11.0 10.0 76 2.2 - 17 - 9 - 1030.0 - 1.2
21/09:00pm 14.0 10.7 10.8 81 1.7 - 19 - 10 - 1029.8 1029.8 1.2
21/08:30pm 14.1 10.4 10.3 78 2.0 - 20 - 11 - 1029.7 - 1.0
21/08:00pm 14.7 10.3 10.3 75 2.3 - 24 - 13 - 1029.6 1029.6 0.6
21/07:30pm 14.7 12.3 9.9 73 2.5 - 13 - 7 - 1029.5 - 0.6
21/07:00pm 14.4 11.9 9.6 73 2.5 - 13 - 7 - 1029.1 1029.1 0.6
21/06:30pm 14.6 11.5 10.4 76 2.2 - 17 - 9 - 1028.9 - 0.6
21/06:00pm 14.7 12.0 10.5 76 2.2 - 15 - 8 - 1028.5 1028.5 0.6
21/05:30pm 14.9 11.8 10.3 74 2.4 - 17 - 9 - 1028.3 - 0.6
21/05:00pm 15.2 11.9 10.8 75 2.3 - 19 - 10 - 1028.0 1028.0 0.6
21/04:30pm 15.5 11.9 10.7 73 2.5 - 20 - 11 - 1027.7 - 0.4
21/04:00pm 15.7 11.6 10.2 70 2.9 - 22 - 12 - 1027.4 1027.4 0.4
21/03:30pm 17.0 13.4 10.6 66 3.4 - 20 - 11 - 1027.2 - 0.4
21/03:00pm 17.1 13.1 10.5 65 3.5 - 22 - 12 - 1027.0 1027.0 0.4
21/02:30pm 17.0 13.1 10.8 67 3.3 - 22 - 12 - 1027.2 - 0.4
21/02:00pm 17.0 13.4 10.6 66 3.4 - 20 - 11 - 1027.3 1027.3 0.4
21/01:30pm 16.7 13.0 10.3 66 3.4 - 20 - 11 - 1027.6 - 0.2
21/01:00pm 17.8 14.6 11.8 68 3.3 - 20 - 11 - 1027.7 1027.7 0.2
21/12:30pm 15.8 12.3 10.3 70 2.9 - 19 - 10 - 1028.2 - 0.2
21/12:00pm 15.8 12.8 10.8 72 2.6 - 17 - 9 - 1028.5 1028.5 0.2
21/11:30am 15.4 12.4 11.8 79 2.0 - 19 - 10 - 1028.9 - 0.2
21/11:00am 14.5 11.3 11.1 80 1.8 - 19 - 10 - 1029.1 1029.1 0.2
21/10:30am 13.7 11.3 11.4 86 1.2 - 15 - 8 - 1029.3 - 0.2
21/10:00am 12.8 10.6 10.9 88 1.0 - 13 - 7 - 1029.4 1029.4 0.2
21/09:30am 12.7 10.2 10.9 89 0.9 - 15 - 8 - 1029.3 - 0.2
21/09:00am 11.7 8.0 9.4 86 1.2 - 19 - 10 - 1029.2 1029.2 10.8
21/08:30am 11.5 7.7 9.1 85 1.2 - 19 - 10 - 1029.1 - 10.8
21/08:00am 10.5 6.7 9.1 91 0.7 - 19 - 10 - 1028.9 1028.9 10.8
21/07:30am 9.5 5.5 8.1 91 0.7 - 19 - 10 - 1028.8 - 10.4
21/07:00am 9.5 5.8 8.1 91 0.7 - 17 - 9 - 1028.4 1028.4 10.4
21/06:30am 9.5 5.8 7.9 90 0.8 - 17 - 9 - 1028.1 - 8.6
21/06:00am 9.7 5.5 8.1 90 0.8 - 20 - 11 - 1027.9 1027.9 8.2
21/05:30am 9.8 5.8 8.2 90 0.8 - 19 - 10 - 1027.5 - 8.0
21/05:00am 9.7 5.5 8.1 90 0.8 - 20 - 11 - 1027.1 1027.1 8.0
21/04:30am 9.9 5.7 8.3 90 0.8 - 20 - 11 - 1027.2 - 8.0
21/04:00am 10.2 6.7 8.6 90 0.8 - 17 - 9 - 1027.2 1027.2 8.0
21/03:30am 10.3 7.2 8.7 90 0.8 - 15 - 8 - 1027.0 - 8.0
21/03:00am 10.4 6.5 8.7 89 0.8 - 19 - 10 - 1027.0 1027.0 8.0
21/02:30am 10.5 7.7 8.6 88 0.9 - 13 - 7 - 1027.1 - 6.2
21/02:00am 10.6 7.8 8.5 87 1.0 - 13 - 7 - 1027.1 1027.1 4.6
21/01:30am 10.8 8.7 8.4 85 1.2 - 9 - 5 - 1027.1 - 2.0
21/01:00am 11.3 8.6 9.0 86 1.1 - 13 - 7 - 1027.1 1027.1 1.6
21/12:30am 11.7 9.8 9.1 84 1.3 - 9 - 5 - 1027.3 - 1.6
21/12:00am 12.1 9.4 9.1 82 1.5 - 13 - 7 - 1027.1 1027.1 0.8
 
Date/Time
EST
Tmp

°C
App
Tmp
°C
Dew
Point
°C
Rel
Hum
%
Delta-T

°C
Wind Press
QNH
hPa
Press
MSL
hPa
Rain
since
9 am
mm
Dir
 
Spd
km/h
Gust
km/h
Spd
kts
Gust
kts
20/11:30pm 12.2 8.6 8.5 78 1.8 - 17 - 9 - 1027.1 - 0.2
20/11:00pm 12.4 9.5 8.1 75 2.1 - 13 - 7 - 1027.1 1027.1 0.2
20/10:30pm 13.0 9.8 7.0 67 2.9 - 13 - 7 - 1026.8 - 0.0
20/10:00pm 13.8 10.8 7.6 66 3.0 - 13 - 7 - 1026.9 1026.9 0.0
20/09:30pm 13.9 10.8 7.2 64 3.3 - 13 - 7 - 1027.0 - 0.0
20/09:00pm 13.9 11.5 7.0 63 3.3 - 9 - 5 - 1026.9 1026.9 0.0
20/08:30pm 13.9 11.2 7.2 64 3.3 - 11 - 6 - 1026.8 - 0.0
20/08:00pm 13.7 10.7 7.5 66 3.0 - 13 - 7 - 1026.5 1026.5 0.0
20/07:30pm 13.3 10.5 7.1 66 3.0 - 11 - 6 - 1026.5 - 0.0

Latest Capital City Observations: Canberra | Sydney | Melbourne | Brisbane | Adelaide | Perth | Hobart | Darwin

Other Formats:

Comma delimited format used in spreadsheet applications
http://www.bom.gov.au/fwo/IDN60901/IDN60901.94768.axf

JavaScript Object Notation format (JSON) in row-major order
http://www.bom.gov.au/fwo/IDN60901/IDN60901.94768.json